Time;durP1;ratioP1;P1;durP2;ratioP2;P2;SDS_P1;SDS_P2;PMS_P1;PMS_P2;Temp;Humidity;BMP_temperature;BMP_pressure;BME280_temperature;BME280_humidity;BME280_pressure;Samples;Min_cycle;Max_cycle;Signal;HPM_P1;HPM_P2
2022/05/02 00:01:23;;;;;;;7.80;5.50;;;;;;;;;;5121114;28;20099;-44
2022/05/02 00:03:48;;;;;;;8.98;4.10;;;;;;;;;;5121740;28;20757;-42
2022/05/02 00:06:13;;;;;;;10.60;5.10;;;;;;;;;;5120910;28;20051;-44
2022/05/02 00:08:39;;;;;;;7.88;5.15;;;;;;;;;;5120971;28;20065;-43
2022/05/02 00:11:04;;;;;;;8.48;5.30;;;;;;;;;;5121182;28;20055;-47
2022/05/02 00:13:29;;;;;;;19.35;8.07;;;;;;;;;;5120067;28;20142;-43
2022/05/02 00:15:54;;;;;;;13.82;6.80;;;;;;;;;;5124361;27;20050;-44
2022/05/02 00:18:20;;;;;;;11.27;7.75;;;;;;;;;;5128133;28;20126;-42
2022/05/02 00:20:46;;;;;;;12.07;6.72;;;;;;;;;;5128138;28;20039;-43
2022/05/02 00:23:11;;;;;;;11.60;5.78;;;;;;;;;;5129415;28;20768;-44
2022/05/02 00:25:37;;;;;;;22.27;7.53;;;;;;;;;;5105333;28;20481;-44
2022/05/02 00:28:02;;;;;;;16.55;6.60;;;;;;;;;;5129318;28;20059;-41
2022/05/02 00:30:28;;;;;;;14.50;6.30;;;;;;;;;;5105009;28;20051;-42
2022/05/02 00:32:54;;;;;;;22.52;7.88;;;;;;;;;;5124018;28;20150;-41
2022/05/02 00:35:19;;;;;;;9.07;6.10;;;;;;;;;;5123808;28;20584;-43
2022/05/02 00:37:44;;;;;;;14.07;7.97;;;;;;;;;;5123518;28;20051;-43
2022/05/02 00:40:11;;;;;;;26.60;7.93;;;;;;;;;;5124528;28;20734;-48
2022/05/02 00:42:36;;;;;;;7.72;5.85;;;;;;;;;;5124121;28;20041;-45
2022/05/02 00:45:04;;;;;;;16.38;7.78;;;;;;;;;;5124256;28;20035;-41
2022/05/02 00:47:29;;;;;;;8.48;6.35;;;;;;;;;;5123330;28;20070;-45
2022/05/02 00:49:55;;;;;;;10.07;5.57;;;;;;;;;;5124063;28;20150;-42
2022/05/02 00:52:20;;;;;;;6.43;5.68;;;;;;;;;;5124410;28;20508;-45
2022/05/02 00:54:45;;;;;;;9.43;5.93;;;;;;;;;;5123493;28;20058;-42
2022/05/02 00:57:12;;;;;;;9.73;5.97;;;;;;;;;;5124214;28;20728;-40
2022/05/02 00:59:37;;;;;;;12.60;5.90;;;;;;;;;;5124349;28;20054;-43
2022/05/02 01:02:04;;;;;;;11.63;4.80;;;;;;;;;;5123938;28;20043;-40
2022/05/02 01:04:29;;;;;;;21.45;6.40;;;;;;;;;;5123483;28;20103;-40
2022/05/02 01:07:11;;;;;;;8.15;5.57;;;;;;;;;;5124168;28;20081;-40
2022/05/02 01:09:43;;;;;;;9.82;5.07;;;;;;;;;;5122661;28;20051;-40
2022/05/02 01:12:10;;;;;;;17.00;6.07;;;;;;;;;;5123980;28;20138;-42
2022/05/02 01:14:36;;;;;;;8.02;5.00;;;;;;;;;;5123630;28;20047;-40
2022/05/02 01:17:02;;;;;;;6.78;4.07;;;;;;;;;;5123884;28;20103;-41
2022/05/02 01:19:27;;;;;;;11.50;5.82;;;;;;;;;;5123897;28;20040;-43
2022/05/02 01:21:53;;;;;;;14.73;5.18;;;;;;;;;;5123715;28;20562;-44
2022/05/02 01:24:18;;;;;;;5.97;3.88;;;;;;;;;;5123381;28;20068;-40
2022/05/02 01:26:43;;;;;;;7.40;3.95;;;;;;;;;;5123081;27;20180;-45
2022/05/02 01:29:09;;;;;;;10.55;4.25;;;;;;;;;;5123200;28;20078;-44
2022/05/02 01:31:34;;;;;;;11.20;4.70;;;;;;;;;;5126740;28;20053;-43
2022/05/02 01:34:00;;;;;;;9.38;4.75;;;;;;;;;;5126609;28;20071;-40
2022/05/02 01:36:25;;;;;;;11.50;4.93;;;;;;;;;;5127169;28;20051;-40
2022/05/02 01:38:51;;;;;;;10.20;6.40;;;;;;;;;;5128403;28;20502;-41
2022/05/02 01:41:16;;;;;;;10.60;3.83;;;;;;;;;;5123683;28;20078;-42
2022/05/02 01:43:42;;;;;;;18.00;6.20;;;;;;;;;;5127378;28;20050;-41
2022/05/02 01:46:08;;;;;;;7.57;4.55;;;;;;;;;;5122384;28;20142;-41
2022/05/02 01:48:33;;;;;;;12.95;5.15;;;;;;;;;;5104819;28;20054;-40
2022/05/02 01:50:59;;;;;;;21.80;5.22;;;;;;;;;;5122897;28;20062;-42
2022/05/02 01:53:25;;;;;;;10.02;4.68;;;;;;;;;;5123191;28;20589;-44
2022/05/02 01:55:50;;;;;;;8.23;4.53;;;;;;;;;;5123848;28;20047;-40
2022/05/02 01:58:16;;;;;;;14.25;4.78;;;;;;;;;;5122804;28;20043;-44
2022/05/02 02:00:41;;;;;;;10.52;5.13;;;;;;;;;;5122766;28;20056;-40
2022/05/02 02:03:06;;;;;;;8.13;4.03;;;;;;;;;;5123183;28;20035;-41
2022/05/02 02:05:50;;;;;;;15.50;4.07;;;;;;;;;;5123281;28;20166;-42
2022/05/02 02:08:16;;;;;;;8.63;5.65;;;;;;;;;;5123206;28;20860;-42
2022/05/02 02:10:42;;;;;;;12.82;5.10;;;;;;;;;;5123009;28;20055;-41
2022/05/02 02:13:07;;;;;;;8.70;6.00;;;;;;;;;;5098224;28;20047;-42
2022/05/02 02:15:32;;;;;;;15.10;4.63;;;;;;;;;;5122011;28;20092;-40
2022/05/02 02:17:58;;;;;;;8.60;4.22;;;;;;;;;;5124293;27;20051;-40
2022/05/02 02:20:23;;;;;;;9.85;5.63;;;;;;;;;;5122085;28;20046;-41
2022/05/02 02:22:48;;;;;;;6.30;5.00;;;;;;;;;;5122423;28;20561;-40
2022/05/02 02:25:14;;;;;;;9.15;6.35;;;;;;;;;;5122868;28;20589;-41
2022/05/02 02:27:39;;;;;;;8.98;6.03;;;;;;;;;;5122715;28;20118;-41
2022/05/02 02:30:05;;;;;;;5.15;4.60;;;;;;;;;;5122024;28;20043;-42
2022/05/02 02:32:32;;;;;;;5.85;3.78;;;;;;;;;;5122509;27;20047;-39
2022/05/02 02:34:57;;;;;;;8.45;6.40;;;;;;;;;;5122112;28;21040;-43
2022/05/02 02:37:22;;;;;;;19.50;7.13;;;;;;;;;;5120968;28;20059;-42
2022/05/02 02:39:47;;;;;;;6.18;5.55;;;;;;;;;;5120766;27;20047;-43
2022/05/02 02:42:13;;;;;;;15.10;6.43;;;;;;;;;;5121501;28;20047;-40
2022/05/02 02:44:38;;;;;;;15.32;6.47;;;;;;;;;;5122003;28;20582;-40
2022/05/02 02:47:04;;;;;;;7.15;5.85;;;;;;;;;;5125671;28;20046;-42
2022/05/02 02:49:29;;;;;;;10.32;5.60;;;;;;;;;;5125011;28;20058;-42
2022/05/02 02:51:54;;;;;;;20.52;6.00;;;;;;;;;;5126507;28;20047;-47
2022/05/02 02:54:20;;;;;;;11.75;4.72;;;;;;;;;;5126327;28;20058;-40
2022/05/02 02:56:46;;;;;;;10.82;4.97;;;;;;;;;;5125758;28;20489;-44
2022/05/02 02:59:11;;;;;;;10.55;6.68;;;;;;;;;;5125674;28;20047;-43
2022/05/02 03:01:36;;;;;;;8.13;5.72;;;;;;;;;;5120627;28;20056;-40
2022/05/02 03:06:01;;;;;;;23.52;5.20;;;;;;;;;;5122171;28;20391;-46
2022/05/02 03:06:47;;;;;;;8.10;5.18;;;;;;;;;;5121411;28;20450;-42
2022/05/02 03:09:12;;;;;;;10.23;6.50;;;;;;;;;;5121265;28;20050;-42
2022/05/02 03:11:38;;;;;;;5.72;4.40;;;;;;;;;;5122233;28;20054;-41
2022/05/02 03:14:03;;;;;;;12.10;5.15;;;;;;;;;;5122709;28;20098;-42
2022/05/02 03:16:29;;;;;;;7.13;4.03;;;;;;;;;;5121640;28;20057;-43
2022/05/02 03:18:54;;;;;;;12.18;4.18;;;;;;;;;;5121707;28;20047;-41
2022/05/02 03:21:19;;;;;;;5.55;4.32;;;;;;;;;;5120998;28;20043;-39
2022/05/02 03:23:45;;;;;;;9.05;5.60;;;;;;;;;;5121106;28;20458;-40
2022/05/02 03:26:10;;;;;;;6.82;4.72;;;;;;;;;;5121952;28;20576;-40
2022/05/02 03:28:35;;;;;;;21.00;4.88;;;;;;;;;;5121514;28;20107;-40
2022/05/02 03:31:00;;;;;;;9.25;5.63;;;;;;;;;;5121684;28;20042;-43
2022/05/02 03:33:26;;;;;;;7.85;3.50;;;;;;;;;;5121652;28;20054;-43
2022/05/02 03:35:51;;;;;;;10.32;4.90;;;;;;;;;;5121227;28;20043;-43
2022/05/02 03:38:16;;;;;;;8.32;5.20;;;;;;;;;;5121625;28;20055;-40
2022/05/02 03:40:42;;;;;;;12.82;3.75;;;;;;;;;;5120762;28;20399;-40
2022/05/02 03:43:07;;;;;;;11.73;5.63;;;;;;;;;;5121693;28;20673;-41
2022/05/02 03:45:32;;;;;;;12.07;5.32;;;;;;;;;;5120813;28;20054;-42
2022/05/02 03:47:59;;;;;;;5.35;3.85;;;;;;;;;;5120996;28;20135;-40
2022/05/02 03:50:24;;;;;;;7.65;5.38;;;;;;;;;;5119611;27;20046;-40
2022/05/02 03:52:49;;;;;;;14.50;8.65;;;;;;;;;;5121092;28;20715;-41
2022/05/02 03:55:15;;;;;;;16.02;9.52;;;;;;;;;;5121494;28;22016;-39
2022/05/02 03:57:40;;;;;;;13.48;6.72;;;;;;;;;;5121277;28;20051;-40
2022/05/02 04:00:06;;;;;;;8.35;6.80;;;;;;;;;;5121986;28;20050;-41
2022/05/02 04:02:31;;;;;;;11.27;6.88;;;;;;;;;;5124723;28;20043;-41
2022/05/02 04:04:56;;;;;;;11.82;6.65;;;;;;;;;;5124659;28;20046;-39
2022/05/02 04:07:21;;;;;;;9.82;5.57;;;;;;;;;;5125517;28;20084;-40
2022/05/02 04:09:47;;;;;;;13.18;5.93;;;;;;;;;;5125620;28;20039;-39
2022/05/02 04:12:12;;;;;;;6.55;5.93;;;;;;;;;;5126151;28;20043;-40
2022/05/02 04:14:37;;;;;;;9.63;6.28;;;;;;;;;;5125423;28;20118;-42
2022/05/02 04:17:03;;;;;;;7.15;4.82;;;;;;;;;;5125712;28;20878;-41
2022/05/02 04:19:28;;;;;;;10.02;5.72;;;;;;;;;;5125436;28;20051;-42
2022/05/02 04:21:53;;;;;;;16.55;8.13;;;;;;;;;;5125312;27;20039;-40
2022/05/02 04:24:19;;;;;;;11.27;7.70;;;;;;;;;;5125469;28;20138;-39
2022/05/02 04:26:44;;;;;;;10.20;5.50;;;;;;;;;;5125742;27;20459;-44
2022/05/02 04:29:09;;;;;;;12.40;6.30;;;;;;;;;;5125361;28;20057;-39
2022/05/02 04:31:35;;;;;;;10.15;5.15;;;;;;;;;;5125370;28;20734;-41
2022/05/02 04:34:00;;;;;;;6.68;5.45;;;;;;;;;;5124704;28;20070;-42
2022/05/02 04:36:25;;;;;;;6.00;4.95;;;;;;;;;;5125888;28;20039;-42
2022/05/02 04:38:51;;;;;;;9.70;4.85;;;;;;;;;;5125383;28;20099;-40
2022/05/02 04:41:16;;;;;;;9.25;4.72;;;;;;;;;;5125216;28;20619;-41
2022/05/02 04:43:42;;;;;;;10.93;5.95;;;;;;;;;;5124337;28;20047;-43
2022/05/02 04:46:08;;;;;;;4.75;3.13;;;;;;;;;;5124813;28;20685;-41
2022/05/02 04:48:33;;;;;;;12.73;4.72;;;;;;;;;;5123824;28;20130;-40
2022/05/02 04:50:59;;;;;;;7.15;3.92;;;;;;;;;;5124001;28;20592;-43
2022/05/02 04:53:24;;;;;;;6.15;4.60;;;;;;;;;;5124300;28;20043;-40
2022/05/02 04:55:49;;;;;;;6.25;4.72;;;;;;;;;;5124692;28;20047;-41
2022/05/02 04:58:15;;;;;;;13.98;5.60;;;;;;;;;;5123982;28;20046;-41
2022/05/02 05:00:40;;;;;;;9.32;5.07;;;;;;;;;;5124515;28;20047;-42
2022/05/02 05:03:06;;;;;;;8.95;3.83;;;;;;;;;;5127914;28;20479;-44
2022/05/02 05:05:31;;;;;;;27.38;3.78;;;;;;;;;;5127529;28;20111;-40
2022/05/02 05:07:56;;;;;;;6.82;4.57;;;;;;;;;;5127342;28;20043;-40
2022/05/02 05:10:22;;;;;;;15.07;5.13;;;;;;;;;;5127995;28;20054;-44
2022/05/02 05:12:57;;;;;;;7.63;4.95;;;;;;;;;;5127498;28;20051;-41
2022/05/02 05:18:34;;;;;;;8.35;3.22;;;;;;;;;;5126929;28;20197;-45
2022/05/02 05:21:02;;;;;;;15.98;5.53;;;;;;;;;;5128050;28;20031;-41
2022/05/02 05:23:34;;;;;;;15.00;5.28;;;;;;;;;;5127668;28;20123;-43
2022/05/02 05:25:59;;;;;;;7.45;4.10;;;;;;;;;;5127677;28;20039;-42
2022/05/02 05:28:24;;;;;;;7.85;4.53;;;;;;;;;;5127521;28;20184;-42
2022/05/02 05:30:54;;;;;;;9.82;6.22;;;;;;;;;;5127899;28;20059;-42
2022/05/02 05:33:19;;;;;;;9.23;4.72;;;;;;;;;;5127535;28;20516;-42
2022/05/02 05:36:07;;;;;;;10.75;6.43;;;;;;;;;;5127629;28;20142;-45
2022/05/02 05:38:51;;;;;;;6.53;3.80;;;;;;;;;;5127120;28;20075;-43
2022/05/02 05:41:55;;;;;;;10.63;5.32;;;;;;;;;;5126385;28;20082;-44
2022/05/02 05:44:27;;;;;;;9.10;6.07;;;;;;;;;;5042959;28;20049;-41
2022/05/02 05:46:58;;;;;;;12.32;5.63;;;;;;;;;;5042674;28;20132;-42
2022/05/02 05:49:42;;;;;;;16.25;10.25;;;;;;;;;;5083707;28;20043;-39
2022/05/02 05:52:12;;;;;;;11.23;7.13;;;;;;;;;;5126894;28;20073;-40
2022/05/02 05:54:37;;;;;;;9.88;8.88;;;;;;;;;;5126425;28;20126;-42
2022/05/02 05:57:08;;;;;;;13.07;7.20;;;;;;;;;;5127203;28;20126;-40
2022/05/02 05:59:34;;;;;;;15.50;6.20;;;;;;;;;;5103787;28;20746;-41
2022/05/02 06:01:59;;;;;;;8.90;6.65;;;;;;;;;;5127624;28;20118;-42
2022/05/02 06:04:25;;;;;;;17.48;6.50;;;;;;;;;;5127295;28;20041;-43
2022/05/02 06:06:51;;;;;;;11.15;5.22;;;;;;;;;;5127402;28;20067;-43
2022/05/02 06:09:17;;;;;;;8.82;4.70;;;;;;;;;;5127911;28;20549;-46
2022/05/02 06:11:45;;;;;;;14.93;4.50;;;;;;;;;;5127320;28;20039;-42
2022/05/02 06:14:12;;;;;;;6.97;4.90;;;;;;;;;;5126355;27;20118;-42
2022/05/02 06:19:25;;;;;;;13.38;7.03;;;;;;;;;;5126041;28;20095;-47
2022/05/02 06:21:50;;;;;;;12.07;6.72;;;;;;;;;;5127266;28;20073;-43
2022/05/02 06:24:16;;;;;;;8.32;5.88;;;;;;;;;;5126826;27;20039;-41
2022/05/02 06:26:43;;;;;;;8.20;6.53;;;;;;;;;;5127148;27;20424;-43
2022/05/02 06:29:08;;;;;;;17.88;7.45;;;;;;;;;;5127383;28;20043;-45
2022/05/02 06:31:36;;;;;;;13.27;6.70;;;;;;;;;;5125643;27;20544;-43
2022/05/02 06:34:02;;;;;;;8.45;5.30;;;;;;;;;;5124403;28;20157;-42
2022/05/02 06:36:33;;;;;;;14.15;6.93;;;;;;;;;;5126059;28;20166;-42
2022/05/02 06:39:18;;;;;;;16.80;6.18;;;;;;;;;;5125963;28;20063;-43
2022/05/02 06:41:53;;;;;;;24.90;9.30;;;;;;;;;;5125557;28;20054;-57
2022/05/02 06:44:18;;;;;;;23.17;8.55;;;;;;;;;;5125861;28;20489;-53
2022/05/02 06:46:54;;;;;;;21.00;7.63;;;;;;;;;;5126143;28;20043;-57
2022/05/02 06:49:22;;;;;;;27.42;7.75;;;;;;;;;;5123921;28;20207;-59
2022/05/02 06:51:49;;;;;;;13.13;7.13;;;;;;;;;;5124493;28;20042;-60
2022/05/02 06:54:14;;;;;;;13.93;6.38;;;;;;;;;;5125706;28;20090;-60
2022/05/02 06:56:43;;;;;;;14.00;6.88;;;;;;;;;;5125189;28;20489;-59
2022/05/02 06:59:23;;;;;;;8.45;5.72;;;;;;;;;;5125147;28;20228;-55
2022/05/02 07:01:49;;;;;;;15.52;8.45;;;;;;;;;;5125666;28;20062;-63
2022/05/02 07:04:33;;;;;;;22.70;7.88;;;;;;;;;;5127440;28;20042;-62
2022/05/02 07:07:11;;;;;;;29.10;7.88;;;;;;;;;;5126657;28;20045;-56
2022/05/02 07:09:39;;;;;;;8.48;4.18;;;;;;;;;;5126347;28;20567;-53
2022/05/02 07:12:04;;;;;;;2.75;2.10;;;;;;;;;;5126608;28;20047;-60
2022/05/02 07:14:39;;;;;;;6.63;3.85;;;;;;;;;;5124488;28;20058;-53
2022/05/02 07:17:07;;;;;;;3.17;2.70;;;;;;;;;;5126395;28;20043;-57
2022/05/02 07:19:48;;;;;;;5.07;3.03;;;;;;;;;;5126148;28;20082;-57
2022/05/02 07:22:16;;;;;;;10.57;4.18;;;;;;;;;;5125822;28;20069;-57
2022/05/02 07:24:42;;;;;;;36.00;6.18;;;;;;;;;;5125813;27;20030;-57
2022/05/02 07:27:14;;;;;;;9.82;4.68;;;;;;;;;;5125475;28;20043;-57
2022/05/02 07:29:39;;;;;;;29.45;6.60;;;;;;;;;;5124439;28;20122;-57
2022/05/02 07:32:06;;;;;;;8.45;4.43;;;;;;;;;;5124005;28;20121;-57
2022/05/02 07:34:33;;;;;;;23.95;6.10;;;;;;;;;;5125754;28;20558;-57
2022/05/02 07:37:00;;;;;;;6.32;3.97;;;;;;;;;;5125710;28;20067;-57
2022/05/02 07:39:25;;;;;;;8.80;2.63;;;;;;;;;;5124699;28;20050;-57
2022/05/02 07:41:51;;;;;;;6.30;2.58;;;;;;;;;;5125580;28;20071;-57
2022/05/02 07:44:17;;;;;;;8.73;2.95;;;;;;;;;;5126300;28;20120;-57
2022/05/02 07:46:43;;;;;;;12.32;2.78;;;;;;;;;;5124821;28;20039;-57
2022/05/02 07:49:10;;;;;;;3.90;2.63;;;;;;;;;;5123222;28;20039;-57
2022/05/02 07:51:57;;;;;;;5.18;2.03;;;;;;;;;;5123956;28;20051;-56
2022/05/02 07:54:26;;;;;;;6.38;2.83;;;;;;;;;;5126172;28;20506;-56
2022/05/02 07:56:51;;;;;;;4.18;3.00;;;;;;;;;;5125311;28;20039;-56
2022/05/02 07:59:23;;;;;;;11.77;3.03;;;;;;;;;;5125957;28;20053;-57
2022/05/02 08:01:49;;;;;;;7.90;3.13;;;;;;;;;;5126073;28;20152;-57
2022/05/02 08:04:14;;;;;;;9.43;3.15;;;;;;;;;;5125809;28;20043;-57
2022/05/02 08:06:43;;;;;;;4.90;2.97;;;;;;;;;;5125027;28;20039;-57
2022/05/02 08:09:20;;;;;;;19.50;3.35;;;;;;;;;;5125677;28;20509;-57
2022/05/02 08:11:48;;;;;;;8.38;2.60;;;;;;;;;;5123248;28;20050;-57
2022/05/02 08:14:16;;;;;;;3.35;1.08;;;;;;;;;;5122733;28;20035;-57
2022/05/02 08:16:50;;;;;;;2.97;1.63;;;;;;;;;;5125330;28;20119;-57
2022/05/02 08:19:30;;;;;;;6.03;3.35;;;;;;;;;;5125444;28;20038;-57
2022/05/02 08:28:01;;;;;;;5.33;1.10;;;;;;;;;;5124256;28;20045;-57
2022/05/02 08:30:36;;;;;;;13.73;2.65;;;;;;;;;;5124763;28;20275;-57
2022/05/02 08:33:06;;;;;;;8.63;2.35;;;;;;;;;;5124079;28;20561;-56
2022/05/02 08:35:55;;;;;;;1.45;1.02;;;;;;;;;;5122611;27;20562;-56
2022/05/02 08:38:27;;;;;;;5.68;1.60;;;;;;;;;;5127466;28;20039;-56
2022/05/02 08:41:01;;;;;;;4.00;1.58;;;;;;;;;;5127830;28;20339;-57
2022/05/02 08:43:29;;;;;;;3.33;1.30;;;;;;;;;;5126352;28;20035;-57
2022/05/02 08:46:04;;;;;;;5.65;1.77;;;;;;;;;;5128324;28;20061;-57
2022/05/02 08:48:45;;;;;;;18.42;3.15;;;;;;;;;;5129038;28;20081;-56
2022/05/02 08:51:10;;;;;;;;;;;;;;;;;;5129226;28;20190;-56
2022/05/02 08:53:55;;;;;;;5.22;2.72;;;;;;;;;;5128690;28;20002;-56
2022/05/02 08:56:48;;;;;;;10.80;2.83;;;;;;;;;;5127375;28;20501;-56
2022/05/02 08:59:13;;;;;;;6.97;3.88;;;;;;;;;;5129515;28;20068;-55
2022/05/02 09:01:45;;;;;;;6.20;3.22;;;;;;;;;;5128794;28;20129;-56
2022/05/02 09:04:29;;;;;;;10.57;4.13;;;;;;;;;;5127640;28;20072;-55
2022/05/02 09:07:13;;;;;;;10.00;3.97;;;;;;;;;;5128374;28;20522;-49
2022/05/02 09:09:57;;;;;;;10.85;6.32;;;;;;;;;;5127758;28;20074;-55
2022/05/02 09:12:22;;;;;;;19.23;5.95;;;;;;;;;;5128518;28;20126;-54
2022/05/02 09:14:56;;;;;;;10.02;5.25;;;;;;;;;;5128367;28;20621;-52
2022/05/02 09:17:22;;;;;;;17.40;5.53;;;;;;;;;;5128360;28;20043;-53
2022/05/02 09:19:47;;;;;;;6.43;2.97;;;;;;;;;;5127976;28;20047;-55
2022/05/02 09:22:31;;;;;;;13.90;6.63;;;;;;;;;;5128453;28;20041;-55
2022/05/02 09:25:03;;;;;;;19.75;6.38;;;;;;;;;;5128600;28;20043;-55
2022/05/02 09:27:31;;;;;;;14.40;5.18;;;;;;;;;;5128798;28;20039;-53
2022/05/02 09:30:17;;;;;;;3.10;2.80;;;;;;;;;;5127716;28;20031;-54
2022/05/02 09:33:01;;;;;;;14.45;2.88;;;;;;;;;;5127213;28;20071;-56
2022/05/02 09:35:34;;;;;;;10.38;5.18;;;;;;;;;;5126903;28;20174;-54
2022/05/02 09:38:07;;;;;;;19.67;4.45;;;;;;;;;;5127598;28;20144;-55
2022/05/02 09:40:37;;;;;;;6.18;4.47;;;;;;;;;;5127936;28;20039;-55
2022/05/02 09:43:05;;;;;;;11.23;4.65;;;;;;;;;;5127553;28;20130;-53
2022/05/02 09:51:07;;;;;;;10.75;3.40;;;;;;;;;;5126815;28;20614;-54
2022/05/02 09:53:51;;;;;;;6.20;3.92;;;;;;;;;;5128084;28;20036;-55
2022/05/02 09:56:39;;;;;;;16.67;4.07;;;;;;;;;;5127865;28;20043;-54
2022/05/02 09:59:07;;;;;;;5.68;3.47;;;;;;;;;;5127124;28;20708;-55
2022/05/02 10:01:33;;;;;;;18.17;7.40;;;;;;;;;;5127511;28;20039;-55
2022/05/02 10:04:04;;;;;;;7.00;4.40;;;;;;;;;;5127708;28;20043;-55
2022/05/02 10:06:30;;;;;;;4.65;3.55;;;;;;;;;;5127592;28;20078;-55
2022/05/02 10:09:01;;;;;;;18.25;4.75;;;;;;;;;;5127669;28;20030;-53
2022/05/02 10:11:40;;;;;;;46.40;10.18;;;;;;;;;;5126930;28;20085;-54
2022/05/02 10:14:22;;;;;;;15.65;6.28;;;;;;;;;;5127599;28;20050;-53
2022/05/02 10:17:07;;;;;;;8.18;5.60;;;;;;;;;;5127548;28;20512;-55
2022/05/02 10:19:51;;;;;;;14.70;4.47;;;;;;;;;;5126984;28;20108;-53
2022/05/02 10:22:37;;;;;;;19.90;14.77;;;;;;;;;;5126716;28;20069;-54
2022/05/02 10:25:21;;;;;;;10.02;4.88;;;;;;;;;;5111832;28;20058;-54
2022/05/02 10:27:46;;;;;;;9.93;5.90;;;;;;;;;;5126682;28;20035;-54
2022/05/02 10:30:12;;;;;;;14.13;6.10;;;;;;;;;;5127106;28;20047;-55
2022/05/02 10:32:37;;;;;;;8.13;4.32;;;;;;;;;;5127083;28;20458;-55
2022/05/02 10:35:03;;;;;;;12.98;3.42;;;;;;;;;;5127168;28;20047;-55
2022/05/02 10:37:31;;;;;;;8.70;4.15;;;;;;;;;;5125704;28;20622;-55
2022/05/02 10:40:16;;;;;;;3.35;2.22;;;;;;;;;;5127112;28;20126;-55
2022/05/02 10:42:45;;;;;;;5.53;2.05;;;;;;;;;;5126998;28;20054;-53
2022/05/02 10:45:11;;;;;;;11.05;3.45;;;;;;;;;;5127197;28;20035;-55
2022/05/02 10:47:41;;;;;;;9.57;4.57;;;;;;;;;;5127072;28;20042;-55
2022/05/02 10:50:19;;;;;;;11.95;3.97;;;;;;;;;;5125215;28;20073;-54
2022/05/02 10:52:51;;;;;;;5.45;3.60;;;;;;;;;;5127083;28;20487;-55
2022/05/02 10:55:19;;;;;;;5.53;3.15;;;;;;;;;;5127172;28;20099;-55
2022/05/02 10:57:51;;;;;;;4.68;2.97;;;;;;;;;;5126955;28;20043;-54
2022/05/02 11:00:17;;;;;;;9.40;4.03;;;;;;;;;;5126284;27;20134;-55
2022/05/02 11:03:05;;;;;;;7.40;3.08;;;;;;;;;;5126799;28;20035;-55
2022/05/02 11:05:57;;;;;;;7.15;4.43;;;;;;;;;;5123506;28;20075;-52
2022/05/02 11:08:37;;;;;;;4.90;3.10;;;;;;;;;;5102842;28;20075;-54
2022/05/02 11:11:07;;;;;;;6.68;3.83;;;;;;;;;;5126569;28;20112;-53
2022/05/02 11:13:40;;;;;;;10.27;4.13;;;;;;;;;;5123557;28;20074;-55
2022/05/02 11:16:11;;;;;;;6.93;3.83;;;;;;;;;;5126261;28;20047;-56
2022/05/02 11:21:39;;;;;;;4.22;2.53;;;;;;;;;;5122165;28;20042;-55
2022/05/02 11:24:05;;;;;;;9.57;4.78;;;;;;;;;;5125962;28;20054;-55
2022/05/02 11:26:40;;;;;;;11.50;4.07;;;;;;;;;;5125426;28;20039;-54
2022/05/02 11:29:24;;;;;;;15.93;4.75;;;;;;;;;;5125583;28;20043;-53
2022/05/02 11:31:52;;;;;;;10.55;2.97;;;;;;;;;;5122724;28;20506;-54
2022/05/02 11:34:19;;;;;;;8.65;3.70;;;;;;;;;;5125984;28;20034;-54
2022/05/02 11:36:46;;;;;;;3.30;2.40;;;;;;;;;;5126334;28;20059;-53
2022/05/02 11:39:18;;;;;;;8.93;4.32;;;;;;;;;;5126082;28;20130;-53
2022/05/02 11:41:46;;;;;;;3.97;2.92;;;;;;;;;;5125771;28;20047;-53
2022/05/02 11:44:13;;;;;;;5.20;2.45;;;;;;;;;;5123322;28;20038;-51
2022/05/02 11:46:55;;;;;;;14.88;6.22;;;;;;;;;;5125366;28;20799;-49
2022/05/02 11:49:23;;;;;;;3.15;2.40;;;;;;;;;;5123526;28;20466;-54
2022/05/02 11:51:50;;;;;;;7.65;3.70;;;;;;;;;;5125347;28;20082;-55
2022/05/02 11:54:27;;;;;;;10.13;2.55;;;;;;;;;;5125570;28;20046;-55
2022/05/02 11:56:59;;;;;;;9.60;2.78;;;;;;;;;;5122703;28;20043;-55
2022/05/02 11:59:26;;;;;;;10.05;4.82;;;;;;;;;;5125678;28;20051;-55
2022/05/02 12:02:03;;;;;;;12.93;4.97;;;;;;;;;;5126320;28;20035;-56
2022/05/02 12:04:29;;;;;;;15.25;7.03;;;;;;;;;;5126096;28;20042;-51
2022/05/02 12:07:01;;;;;;;17.95;6.47;;;;;;;;;;5125801;28;20126;-55
2022/05/02 12:09:28;;;;;;;7.60;3.10;;;;;;;;;;5125137;28;20071;-54
2022/05/02 12:11:58;;;;;;;28.15;5.35;;;;;;;;;;5126757;27;20043;-54
2022/05/02 12:14:24;;;;;;;15.25;4.45;;;;;;;;;;5128544;28;20122;-53
2022/05/02 12:17:02;;;;;;;7.03;3.72;;;;;;;;;;5128737;28;20058;-56
2022/05/02 12:19:28;;;;;;;12.63;4.63;;;;;;;;;;5097743;28;20506;-55
2022/05/02 12:21:55;;;;;;;5.40;3.05;;;;;;;;;;5128262;28;20100;-54
2022/05/02 12:24:27;;;;;;;17.20;4.07;;;;;;;;;;5127622;28;20463;-55
2022/05/02 12:26:53;;;;;;;6.90;2.60;;;;;;;;;;5128607;28;20067;-53
2022/05/02 12:29:19;;;;;;;9.85;3.25;;;;;;;;;;5128521;28;20098;-55
2022/05/02 12:31:52;;;;;;;7.05;2.67;;;;;;;;;;5128382;28;20530;-55
2022/05/02 12:34:19;;;;;;;5.20;2.67;;;;;;;;;;5127795;28;20057;-56
2022/05/02 12:36:44;;;;;;;5.15;2.95;;;;;;;;;;5128399;28;20066;-55
2022/05/02 12:39:15;;;;;;;15.48;5.53;;;;;;;;;;5128746;28;20670;-56
2022/05/02 12:41:41;;;;;;;;;;;;;;;;;;5124299;28;20046;-54
2022/05/02 12:44:08;;;;;;;7.97;2.63;;;;;;;;;;5107318;28;19919;-55
2022/05/02 12:46:38;;;;;;;12.90;2.95;;;;;;;;;;5128651;28;20370;-56
2022/05/02 12:49:04;;;;;;;8.82;3.15;;;;;;;;;;5127326;28;20091;-55
2022/05/02 12:51:30;;;;;;;4.47;3.50;;;;;;;;;;5128035;28;20425;-55
2022/05/02 12:54:15;;;;;;;13.45;5.43;;;;;;;;;;5128214;28;20538;-52
2022/05/02 12:56:47;;;;;;;14.38;4.25;;;;;;;;;;5127992;28;20115;-57
2022/05/02 13:02:00;;;;;;;8.93;3.50;;;;;;;;;;5128031;28;20039;-56
2022/05/02 13:04:27;;;;;;;10.27;4.38;;;;;;;;;;5128277;28;20594;-56
2022/05/02 13:06:57;;;;;;;12.20;5.72;;;;;;;;;;5127872;28;20039;-56
2022/05/02 13:09:23;;;;;;;9.77;3.88;;;;;;;;;;5127924;28;20047;-53
2022/05/02 13:11:48;;;;;;;6.97;2.92;;;;;;;;;;5128763;28;20047;-54
2022/05/02 13:14:21;;;;;;;2.08;1.48;;;;;;;;;;5128237;28;20395;-54
2022/05/02 13:16:47;;;;;;;27.60;6.55;;;;;;;;;;5127574;28;20042;-53
2022/05/02 13:19:12;;;;;;;8.82;3.15;;;;;;;;;;5128423;28;20574;-55
2022/05/02 13:21:38;;;;;;;8.05;4.43;;;;;;;;;;5127713;28;20387;-55
2022/05/02 13:24:07;;;;;;;2.92;1.75;;;;;;;;;;5127741;27;20039;-55
2022/05/02 13:26:33;;;;;;;4.47;2.78;;;;;;;;;;5127548;28;20065;-50
2022/05/02 13:29:07;;;;;;;11.52;5.03;;;;;;;;;;5128832;28;20087;-56
2022/05/02 13:31:44;;;;;;;6.95;1.83;;;;;;;;;;5127840;28;20561;-56
2022/05/02 13:34:31;;;;;;;4.97;3.55;;;;;;;;;;5127903;28;20043;-56
2022/05/02 13:37:06;;;;;;;4.80;2.78;;;;;;;;;;5126674;28;20051;-54
2022/05/02 13:39:46;;;;;;;4.00;2.20;;;;;;;;;;5126274;28;20518;-51
2022/05/02 13:42:21;;;;;;;8.27;2.30;;;;;;;;;;5127865;28;20046;-52
2022/05/02 13:44:56;;;;;;;9.30;6.10;;;;;;;;;;5127157;28;20090;-53
2022/05/02 13:47:26;;;;;;;7.75;2.58;;;;;;;;;;5126595;28;20043;-53
2022/05/02 13:49:52;;;;;;;19.50;4.87;;;;;;;;;;5123883;28;20043;-55
2022/05/02 13:52:23;;;;;;;10.98;2.70;;;;;;;;;;5126959;28;20095;-54
2022/05/02 13:54:52;;;;;;;13.80;4.20;;;;;;;;;;5127464;28;20042;-55
2022/05/02 13:57:18;;;;;;;10.45;5.28;;;;;;;;;;5126459;28;20051;-54
2022/05/02 14:00:14;;;;;;;6.22;4.20;;;;;;;;;;5126944;28;20130;-54
2022/05/02 14:03:22;;;;;;;15.80;5.13;;;;;;;;;;5126929;28;20050;-54
2022/05/02 14:08:31;;;;;;;6.28;2.58;;;;;;;;;;5127505;28;20149;-53
2022/05/02 14:10:58;;;;;;;9.95;5.78;;;;;;;;;;5127473;28;20546;-55
2022/05/02 14:13:24;;;;;;;7.22;3.80;;;;;;;;;;5126769;28;20127;-56
2022/05/02 14:15:49;;;;;;;9.63;4.00;;;;;;;;;;5127247;28;20550;-55
2022/05/02 14:18:18;;;;;;;6.43;2.58;;;;;;;;;;5127231;28;20043;-56
2022/05/02 14:20:45;;;;;;;1.88;1.13;;;;;;;;;;5127195;28;20035;-57
2022/05/02 14:23:11;;;;;;;5.63;3.20;;;;;;;;;;5127266;28;20707;-55
2022/05/02 14:25:38;;;;;;;15.25;3.13;;;;;;;;;;5127006;28;20050;-56
2022/05/02 14:28:06;;;;;;;12.85;6.10;;;;;;;;;;5126963;28;20039;-54
2022/05/02 14:30:36;;;;;;;16.42;7.38;;;;;;;;;;5125716;28;20545;-54
2022/05/02 14:33:01;;;;;;;9.85;4.18;;;;;;;;;;5126838;28;20104;-54
2022/05/02 14:35:36;;;;;;;15.85;7.10;;;;;;;;;;5125861;27;20028;-56
2022/05/02 14:38:03;;;;;;;5.22;4.53;;;;;;;;;;5126589;28;20039;-56
2022/05/02 14:40:29;;;;;;;7.35;2.90;;;;;;;;;;5127165;28;20039;-57
2022/05/02 14:42:55;;;;;;;7.00;4.47;;;;;;;;;;5125882;28;20038;-56
2022/05/02 14:45:20;;;;;;;5.55;3.33;;;;;;;;;;5126730;28;20035;-55
2022/05/02 14:47:49;;;;;;;6.88;3.35;;;;;;;;;;5126785;28;20530;-56
2022/05/02 14:50:15;;;;;;;6.88;3.08;;;;;;;;;;5125641;28;20538;-52
2022/05/02 14:52:40;;;;;;;14.25;3.92;;;;;;;;;;5126083;28;20118;-54
2022/05/02 14:55:08;;;;;;;12.25;4.47;;;;;;;;;;5126384;28;20073;-54
2022/05/02 14:57:33;;;;;;;6.57;4.03;;;;;;;;;;5126674;28;20058;-54
2022/05/02 15:00:05;;;;;;;10.88;2.97;;;;;;;;;;5125989;28;20058;-57
2022/05/02 15:02:33;;;;;;;17.60;5.97;;;;;;;;;;5126326;28;20074;-55
2022/05/02 15:05:02;;;;;;;15.15;4.00;;;;;;;;;;5126055;28;20040;-57
2022/05/02 15:07:33;;;;;;;3.17;2.17;;;;;;;;;;5124450;28;20042;-56
2022/05/02 15:10:31;;;;;;;10.60;2.60;;;;;;;;;;5125862;28;20047;-57
2022/05/02 15:12:56;;;;;;;7.90;3.17;;;;;;;;;;5092219;28;20522;-56
2022/05/02 15:15:22;;;;;;;9.77;4.10;;;;;;;;;;5125369;28;20134;-55
2022/05/02 15:17:58;;;;;;;4.00;2.33;;;;;;;;;;5125550;28;20058;-53